sensor_id;sensor_type;location;lat;lon;timestamp;P1;durP1;ratioP1;P2;durP2;ratioP2
34930;SDS011;21134;49.646;8.560;2023-06-26T00:00:12;4.38;;;2.00;;
34930;SDS011;21134;49.646;8.560;2023-06-26T00:02:39;4.32;;;2.00;;
34930;SDS011;21134;49.646;8.560;2023-06-26T00:05:06;3.58;;;1.92;;
34930;SDS011;21134;49.646;8.560;2023-06-26T00:07:33;4.22;;;2.20;;
34930;SDS011;21134;49.646;8.560;2023-06-26T00:10:01;6.55;;;2.40;;
34930;SDS011;21134;49.646;8.560;2023-06-26T00:12:28;3.75;;;2.28;;
34930;SDS011;21134;49.646;8.560;2023-06-26T00:14:55;4.40;;;2.08;;
34930;SDS011;21134;49.646;8.560;2023-06-26T00:17:22;2.53;;;1.90;;
34930;SDS011;21134;49.646;8.560;2023-06-26T00:19:49;5.00;;;2.03;;
34930;SDS011;21134;49.646;8.560;2023-06-26T00:22:16;4.47;;;2.65;;
34930;SDS011;21134;49.646;8.560;2023-06-26T00:24:42;2.92;;;2.55;;
34930;SDS011;21134;49.646;8.560;2023-06-26T00:27:11;2.75;;;1.90;;
34930;SDS011;21134;49.646;8.560;2023-06-26T00:29:37;2.60;;;1.70;;
34930;SDS011;21134;49.646;8.560;2023-06-26T00:32:06;2.92;;;1.75;;
34930;SDS011;21134;49.646;8.560;2023-06-26T00:34:33;6.97;;;2.90;;
34930;SDS011;21134;49.646;8.560;2023-06-26T00:36:59;2.90;;;2.20;;
34930;SDS011;21134;49.646;8.560;2023-06-26T00:39:26;5.57;;;2.28;;
34930;SDS011;21134;49.646;8.560;2023-06-26T00:41:52;3.47;;;2.03;;
34930;SDS011;21134;49.646;8.560;2023-06-26T00:44:21;2.45;;;1.92;;
34930;SDS011;21134;49.646;8.560;2023-06-26T00:46:47;5.22;;;2.58;;
34930;SDS011;21134;49.646;8.560;2023-06-26T00:49:14;3.88;;;2.47;;
34930;SDS011;21134;49.646;8.560;2023-06-26T00:51:41;3.53;;;1.83;;
34930;SDS011;21134;49.646;8.560;2023-06-26T00:54:07;4.95;;;2.72;;
34930;SDS011;21134;49.646;8.560;2023-06-26T00:56:34;3.35;;;2.13;;
34930;SDS011;21134;49.646;8.560;2023-06-26T00:59:01;3.75;;;2.00;;
34930;SDS011;21134;49.646;8.560;2023-06-26T01:01:29;4.75;;;1.85;;
34930;SDS011;21134;49.646;8.560;2023-06-26T01:03:56;2.70;;;1.90;;
34930;SDS011;21134;49.646;8.560;2023-06-26T01:06:23;3.33;;;1.85;;
34930;SDS011;21134;49.646;8.560;2023-06-26T01:08:52;8.63;;;2.28;;
34930;SDS011;21134;49.646;8.560;2023-06-26T01:11:18;2.40;;;2.00;;
34930;SDS011;21134;49.646;8.560;2023-06-26T01:13:45;3.25;;;2.30;;
34930;SDS011;21134;49.646;8.560;2023-06-26T01:16:11;4.25;;;2.65;;
34930;SDS011;21134;49.646;8.560;2023-06-26T01:18:42;3.40;;;2.03;;
34930;SDS011;21134;49.646;8.560;2023-06-26T01:21:10;4.57;;;2.20;;
34930;SDS011;21134;49.646;8.560;2023-06-26T01:26:27;2.67;;;2.35;;
34930;SDS011;21134;49.646;8.560;2023-06-26T01:28:56;3.88;;;2.20;;
34930;SDS011;21134;49.646;8.560;2023-06-26T01:31:24;4.57;;;2.70;;
34930;SDS011;21134;49.646;8.560;2023-06-26T01:33:53;3.65;;;1.90;;
34930;SDS011;21134;49.646;8.560;2023-06-26T01:36:20;5.38;;;3.17;;
34930;SDS011;21134;49.646;8.560;2023-06-26T01:38:48;4.82;;;2.65;;
34930;SDS011;21134;49.646;8.560;2023-06-26T01:41:14;3.55;;;2.17;;
34930;SDS011;21134;49.646;8.560;2023-06-26T01:43:43;3.15;;;2.58;;
34930;SDS011;21134;49.646;8.560;2023-06-26T01:46:21;5.65;;;2.65;;
34930;SDS011;21134;49.646;8.560;2023-06-26T01:48:52;2.65;;;1.80;;
34930;SDS011;21134;49.646;8.560;2023-06-26T01:51:34;4.85;;;2.45;;
34930;SDS011;21134;49.646;8.560;2023-06-26T01:54:07;3.15;;;2.65;;
34930;SDS011;21134;49.646;8.560;2023-06-26T01:56:38;3.20;;;1.95;;
34930;SDS011;21134;49.646;8.560;2023-06-26T01:59:07;2.08;;;1.88;;
34930;SDS011;21134;49.646;8.560;2023-06-26T02:01:36;4.97;;;2.50;;
34930;SDS011;21134;49.646;8.560;2023-06-26T02:04:02;2.35;;;2.00;;
34930;SDS011;21134;49.646;8.560;2023-06-26T02:06:29;13.20;;;2.40;;
34930;SDS011;21134;49.646;8.560;2023-06-26T02:08:55;4.68;;;2.78;;
34930;SDS011;21134;49.646;8.560;2023-06-26T02:11:22;6.07;;;2.95;;
34930;SDS011;21134;49.646;8.560;2023-06-26T02:13:49;6.25;;;2.75;;
34930;SDS011;21134;49.646;8.560;2023-06-26T02:16:17;3.08;;;2.10;;
34930;SDS011;21134;49.646;8.560;2023-06-26T02:18:43;3.83;;;2.45;;
34930;SDS011;21134;49.646;8.560;2023-06-26T02:21:10;3.83;;;2.50;;
34930;SDS011;21134;49.646;8.560;2023-06-26T02:23:36;5.93;;;2.22;;
34930;SDS011;21134;49.646;8.560;2023-06-26T02:26:03;5.03;;;2.05;;
34930;SDS011;21134;49.646;8.560;2023-06-26T02:28:29;3.97;;;2.20;;
34930;SDS011;21134;49.646;8.560;2023-06-26T02:30:56;3.10;;;1.95;;
34930;SDS011;21134;49.646;8.560;2023-06-26T02:33:24;3.78;;;2.40;;
34930;SDS011;21134;49.646;8.560;2023-06-26T02:35:50;3.20;;;2.28;;
34930;SDS011;21134;49.646;8.560;2023-06-26T02:38:18;5.07;;;2.35;;
34930;SDS011;21134;49.646;8.560;2023-06-26T02:40:45;4.43;;;2.05;;
34930;SDS011;21134;49.646;8.560;2023-06-26T02:43:11;6.25;;;2.67;;
34930;SDS011;21134;49.646;8.560;2023-06-26T02:45:38;3.33;;;2.20;;
34930;SDS011;21134;49.646;8.560;2023-06-26T02:48:04;4.68;;;2.42;;
34930;SDS011;21134;49.646;8.560;2023-06-26T02:50:32;3.28;;;2.42;;
34930;SDS011;21134;49.646;8.560;2023-06-26T02:52:59;2.38;;;2.03;;
34930;SDS011;21134;49.646;8.560;2023-06-26T02:55:25;3.42;;;2.47;;
34930;SDS011;21134;49.646;8.560;2023-06-26T02:57:52;4.28;;;2.45;;
34930;SDS011;21134;49.646;8.560;2023-06-26T03:00:18;4.35;;;2.30;;
34930;SDS011;21134;49.646;8.560;2023-06-26T03:02:45;3.70;;;2.53;;
34930;SDS011;21134;49.646;8.560;2023-06-26T03:05:11;3.63;;;2.55;;
34930;SDS011;21134;49.646;8.560;2023-06-26T03:07:39;3.35;;;2.40;;
34930;SDS011;21134;49.646;8.560;2023-06-26T03:10:06;5.55;;;2.60;;
34930;SDS011;21134;49.646;8.560;2023-06-26T03:12:33;3.55;;;2.28;;
34930;SDS011;21134;49.646;8.560;2023-06-26T03:15:00;3.92;;;2.13;;
34930;SDS011;21134;49.646;8.560;2023-06-26T03:17:26;4.35;;;2.10;;
34930;SDS011;21134;49.646;8.560;2023-06-26T03:19:53;3.30;;;2.05;;
34930;SDS011;21134;49.646;8.560;2023-06-26T03:22:19;7.13;;;2.80;;
34930;SDS011;21134;49.646;8.560;2023-06-26T03:24:47;4.30;;;2.83;;
34930;SDS011;21134;49.646;8.560;2023-06-26T03:27:14;4.43;;;2.15;;
34930;SDS011;21134;49.646;8.560;2023-06-26T03:29:40;6.80;;;2.65;;
34930;SDS011;21134;49.646;8.560;2023-06-26T03:32:07;2.50;;;2.28;;
34930;SDS011;21134;49.646;8.560;2023-06-26T03:34:34;3.83;;;2.38;;
34930;SDS011;21134;49.646;8.560;2023-06-26T03:37:01;2.97;;;2.05;;
34930;SDS011;21134;49.646;8.560;2023-06-26T03:39:28;3.63;;;2.05;;
34930;SDS011;21134;49.646;8.560;2023-06-26T03:41:56;3.33;;;2.13;;
34930;SDS011;21134;49.646;8.560;2023-06-26T03:44:25;2.97;;;2.28;;
34930;SDS011;21134;49.646;8.560;2023-06-26T03:46:51;4.13;;;1.90;;
34930;SDS011;21134;49.646;8.560;2023-06-26T03:49:18;3.30;;;2.15;;
34930;SDS011;21134;49.646;8.560;2023-06-26T03:51:44;3.40;;;2.05;;
34930;SDS011;21134;49.646;8.560;2023-06-26T03:54:11;2.20;;;1.88;;
34930;SDS011;21134;49.646;8.560;2023-06-26T03:56:38;7.70;;;2.65;;
34930;SDS011;21134;49.646;8.560;2023-06-26T03:59:05;4.78;;;2.47;;
34930;SDS011;21134;49.646;8.560;2023-06-26T04:01:32;2.63;;;2.05;;
34930;SDS011;21134;49.646;8.560;2023-06-26T04:03:59;2.40;;;2.00;;
34930;SDS011;21134;49.646;8.560;2023-06-26T04:06:26;3.70;;;2.25;;
34930;SDS011;21134;49.646;8.560;2023-06-26T04:08:52;3.55;;;2.50;;
34930;SDS011;21134;49.646;8.560;2023-06-26T04:11:19;4.47;;;1.92;;
34930;SDS011;21134;49.646;8.560;2023-06-26T04:13:45;7.43;;;3.13;;
34930;SDS011;21134;49.646;8.560;2023-06-26T04:16:13;10.32;;;2.50;;
34930;SDS011;21134;49.646;8.560;2023-06-26T04:18:40;9.43;;;2.30;;
34930;SDS011;21134;49.646;8.560;2023-06-26T04:21:08;2.78;;;2.13;;
34930;SDS011;21134;49.646;8.560;2023-06-26T04:23:36;4.07;;;2.78;;
34930;SDS011;21134;49.646;8.560;2023-06-26T04:26:03;5.43;;;2.25;;
34930;SDS011;21134;49.646;8.560;2023-06-26T04:28:31;5.15;;;3.00;;
34930;SDS011;21134;49.646;8.560;2023-06-26T04:30:57;4.88;;;2.65;;
34930;SDS011;21134;49.646;8.560;2023-06-26T04:33:25;4.40;;;2.38;;
34930;SDS011;21134;49.646;8.560;2023-06-26T04:35:52;4.55;;;2.20;;
34930;SDS011;21134;49.646;8.560;2023-06-26T04:38:19;4.70;;;1.95;;
34930;SDS011;21134;49.646;8.560;2023-06-26T04:40:46;4.53;;;2.70;;
34930;SDS011;21134;49.646;8.560;2023-06-26T04:43:13;4.22;;;2.45;;
34930;SDS011;21134;49.646;8.560;2023-06-26T04:45:39;3.33;;;1.95;;
34930;SDS011;21134;49.646;8.560;2023-06-26T04:48:06;9.77;;;2.78;;
34930;SDS011;21134;49.646;8.560;2023-06-26T04:50:35;3.13;;;2.35;;
34930;SDS011;21134;49.646;8.560;2023-06-26T04:53:01;4.90;;;2.58;;
34930;SDS011;21134;49.646;8.560;2023-06-26T04:55:28;3.75;;;2.42;;
34930;SDS011;21134;49.646;8.560;2023-06-26T04:57:55;5.00;;;2.78;;
34930;SDS011;21134;49.646;8.560;2023-06-26T05:00:22;6.53;;;2.75;;
34930;SDS011;21134;49.646;8.560;2023-06-26T05:02:49;3.72;;;2.50;;
34930;SDS011;21134;49.646;8.560;2023-06-26T05:05:23;5.25;;;2.55;;
34930;SDS011;21134;49.646;8.560;2023-06-26T05:07:52;2.80;;;2.33;;
34930;SDS011;21134;49.646;8.560;2023-06-26T05:10:18;5.90;;;2.47;;
34930;SDS011;21134;49.646;8.560;2023-06-26T05:12:45;6.68;;;2.13;;
34930;SDS011;21134;49.646;8.560;2023-06-26T05:15:11;5.15;;;2.47;;
34930;SDS011;21134;49.646;8.560;2023-06-26T05:17:38;7.65;;;2.20;;
34930;SDS011;21134;49.646;8.560;2023-06-26T05:20:05;8.13;;;2.80;;
34930;SDS011;21134;49.646;8.560;2023-06-26T05:22:32;4.53;;;2.80;;
34930;SDS011;21134;49.646;8.560;2023-06-26T05:25:01;6.13;;;2.35;;
34930;SDS011;21134;49.646;8.560;2023-06-26T05:27:30;5.35;;;2.40;;
34930;SDS011;21134;49.646;8.560;2023-06-26T05:29:57;6.85;;;2.45;;
34930;SDS011;21134;49.646;8.560;2023-06-26T05:32:24;3.83;;;2.53;;
34930;SDS011;21134;49.646;8.560;2023-06-26T05:34:51;17.95;;;2.58;;
34930;SDS011;21134;49.646;8.560;2023-06-26T05:37:21;6.65;;;2.78;;
34930;SDS011;21134;49.646;8.560;2023-06-26T05:39:48;4.82;;;2.60;;
34930;SDS011;21134;49.646;8.560;2023-06-26T05:42:17;7.65;;;2.95;;
34930;SDS011;21134;49.646;8.560;2023-06-26T05:44:43;5.03;;;3.08;;
34930;SDS011;21134;49.646;8.560;2023-06-26T05:47:10;6.50;;;2.45;;
34930;SDS011;21134;49.646;8.560;2023-06-26T05:49:36;3.85;;;2.53;;
34930;SDS011;21134;49.646;8.560;2023-06-26T05:52:03;5.70;;;2.97;;
34930;SDS011;21134;49.646;8.560;2023-06-26T05:54:30;7.75;;;2.95;;
34930;SDS011;21134;49.646;8.560;2023-06-26T05:56:57;6.00;;;3.88;;
34930;SDS011;21134;49.646;8.560;2023-06-26T05:59:26;6.03;;;2.90;;
34930;SDS011;21134;49.646;8.560;2023-06-26T06:01:53;4.65;;;2.55;;
34930;SDS011;21134;49.646;8.560;2023-06-26T06:04:20;5.82;;;3.15;;
34930;SDS011;21134;49.646;8.560;2023-06-26T06:06:46;5.28;;;3.20;;
34930;SDS011;21134;49.646;8.560;2023-06-26T06:09:13;6.28;;;2.72;;
34930;SDS011;21134;49.646;8.560;2023-06-26T06:11:40;4.13;;;2.92;;
34930;SDS011;21134;49.646;8.560;2023-06-26T06:14:07;5.65;;;2.38;;
34930;SDS011;21134;49.646;8.560;2023-06-26T06:16:35;3.55;;;2.47;;
34930;SDS011;21134;49.646;8.560;2023-06-26T06:19:02;9.75;;;3.83;;
34930;SDS011;21134;49.646;8.560;2023-06-26T06:21:31;7.70;;;3.05;;
34930;SDS011;21134;49.646;8.560;2023-06-26T06:23:58;5.70;;;2.90;;
34930;SDS011;21134;49.646;8.560;2023-06-26T06:26:26;9.23;;;3.08;;
34930;SDS011;21134;49.646;8.560;2023-06-26T06:28:52;4.95;;;2.75;;
34930;SDS011;21134;49.646;8.560;2023-06-26T06:31:19;3.38;;;2.33;;
34930;SDS011;21134;49.646;8.560;2023-06-26T06:33:47;3.92;;;2.30;;
34930;SDS011;21134;49.646;8.560;2023-06-26T06:36:13;4.13;;;2.67;;
34930;SDS011;21134;49.646;8.560;2023-06-26T06:38:42;8.52;;;3.38;;
34930;SDS011;21134;49.646;8.560;2023-06-26T06:41:09;5.40;;;3.08;;
34930;SDS011;21134;49.646;8.560;2023-06-26T06:43:35;4.60;;;2.70;;
34930;SDS011;21134;49.646;8.560;2023-06-26T06:46:02;4.75;;;2.78;;
34930;SDS011;21134;49.646;8.560;2023-06-26T06:48:28;5.90;;;3.05;;
34930;SDS011;21134;49.646;8.560;2023-06-26T06:50:56;5.78;;;3.25;;
34930;SDS011;21134;49.646;8.560;2023-06-26T06:53:22;5.85;;;3.58;;
34930;SDS011;21134;49.646;8.560;2023-06-26T06:55:49;4.38;;;2.53;;
34930;SDS011;21134;49.646;8.560;2023-06-26T06:58:16;7.57;;;3.45;;
34930;SDS011;21134;49.646;8.560;2023-06-26T07:00:44;5.13;;;3.03;;
34930;SDS011;21134;49.646;8.560;2023-06-26T07:03:10;3.97;;;2.75;;
34930;SDS011;21134;49.646;8.560;2023-06-26T07:05:37;4.88;;;3.20;;
34930;SDS011;21134;49.646;8.560;2023-06-26T07:08:05;5.13;;;2.97;;
34930;SDS011;21134;49.646;8.560;2023-06-26T07:10:31;5.65;;;2.63;;
34930;SDS011;21134;49.646;8.560;2023-06-26T07:12:58;5.22;;;3.13;;
34930;SDS011;21134;49.646;8.560;2023-06-26T07:15:24;6.03;;;3.00;;
34930;SDS011;21134;49.646;8.560;2023-06-26T07:17:51;7.53;;;3.28;;
34930;SDS011;21134;49.646;8.560;2023-06-26T07:20:17;4.38;;;2.50;;
34930;SDS011;21134;49.646;8.560;2023-06-26T07:22:44;4.07;;;2.28;;
34930;SDS011;21134;49.646;8.560;2023-06-26T07:25:12;5.07;;;3.58;;
34930;SDS011;21134;49.646;8.560;2023-06-26T07:27:39;3.85;;;2.80;;
34930;SDS011;21134;49.646;8.560;2023-06-26T07:30:07;4.30;;;2.63;;
34930;SDS011;21134;49.646;8.560;2023-06-26T07:32:34;4.65;;;2.63;;
34930;SDS011;21134;49.646;8.560;2023-06-26T07:35:01;6.20;;;2.92;;
34930;SDS011;21134;49.646;8.560;2023-06-26T07:37:28;4.05;;;3.00;;
34930;SDS011;21134;49.646;8.560;2023-06-26T07:39:54;4.60;;;2.72;;
34930;SDS011;21134;49.646;8.560;2023-06-26T07:42:22;13.55;;;4.43;;
34930;SDS011;21134;49.646;8.560;2023-06-26T07:44:48;4.25;;;2.80;;
34930;SDS011;21134;49.646;8.560;2023-06-26T07:47:15;6.65;;;2.88;;
34930;SDS011;21134;49.646;8.560;2023-06-26T07:49:42;6.32;;;2.80;;
34930;SDS011;21134;49.646;8.560;2023-06-26T07:52:08;4.65;;;2.70;;
34930;SDS011;21134;49.646;8.560;2023-06-26T07:54:36;4.03;;;3.15;;
34930;SDS011;21134;49.646;8.560;2023-06-26T07:57:03;5.93;;;3.15;;
34930;SDS011;21134;49.646;8.560;2023-06-26T07:59:33;4.30;;;2.88;;
34930;SDS011;21134;49.646;8.560;2023-06-26T08:01:59;4.07;;;2.92;;
34930;SDS011;21134;49.646;8.560;2023-06-26T08:04:27;4.53;;;2.70;;
34930;SDS011;21134;49.646;8.560;2023-06-26T08:06:55;3.65;;;2.53;;
34930;SDS011;21134;49.646;8.560;2023-06-26T08:09:23;9.05;;;2.58;;
34930;SDS011;21134;49.646;8.560;2023-06-26T08:11:52;4.85;;;2.85;;
34930;SDS011;21134;49.646;8.560;2023-06-26T08:14:19;4.13;;;2.35;;
34930;SDS011;21134;49.646;8.560;2023-06-26T08:16:47;3.45;;;2.88;;
34930;SDS011;21134;49.646;8.560;2023-06-26T08:19:14;5.57;;;2.70;;
34930;SDS011;21134;49.646;8.560;2023-06-26T08:21:41;6.65;;;2.95;;
34930;SDS011;21134;49.646;8.560;2023-06-26T08:24:08;4.13;;;2.50;;
34930;SDS011;21134;49.646;8.560;2023-06-26T08:26:35;3.17;;;2.40;;
34930;SDS011;21134;49.646;8.560;2023-06-26T08:29:02;3.67;;;2.20;;
34930;SDS011;21134;49.646;8.560;2023-06-26T08:31:32;3.50;;;2.35;;
34930;SDS011;21134;49.646;8.560;2023-06-26T08:34:00;6.18;;;2.90;;
34930;SDS011;21134;49.646;8.560;2023-06-26T08:36:27;4.40;;;2.45;;
34930;SDS011;21134;49.646;8.560;2023-06-26T08:38:54;2.95;;;2.10;;
34930;SDS011;21134;49.646;8.560;2023-06-26T08:41:20;3.78;;;2.38;;
34930;SDS011;21134;49.646;8.560;2023-06-26T08:43:47;4.70;;;2.95;;
34930;SDS011;21134;49.646;8.560;2023-06-26T08:46:16;3.40;;;2.20;;
34930;SDS011;21134;49.646;8.560;2023-06-26T08:48:43;4.53;;;2.75;;
34930;SDS011;21134;49.646;8.560;2023-06-26T08:51:16;3.67;;;2.65;;
34930;SDS011;21134;49.646;8.560;2023-06-26T08:53:46;4.75;;;2.47;;
34930;SDS011;21134;49.646;8.560;2023-06-26T08:56:18;5.50;;;2.65;;
34930;SDS011;21134;49.646;8.560;2023-06-26T08:58:46;11.80;;;2.58;;
34930;SDS011;21134;49.646;8.560;2023-06-26T09:01:12;7.15;;;3.67;;
34930;SDS011;21134;49.646;8.560;2023-06-26T09:03:39;2.92;;;2.58;;
34930;SDS011;21134;49.646;8.560;2023-06-26T09:06:06;4.78;;;2.70;;
34930;SDS011;21134;49.646;8.560;2023-06-26T09:08:34;3.33;;;2.50;;
34930;SDS011;21134;49.646;8.560;2023-06-26T09:11:01;5.72;;;3.05;;
34930;SDS011;21134;49.646;8.560;2023-06-26T09:13:28;4.85;;;2.83;;
34930;SDS011;21134;49.646;8.560;2023-06-26T09:15:55;3.58;;;2.30;;
34930;SDS011;21134;49.646;8.560;2023-06-26T09:18:21;6.15;;;2.53;;
34930;SDS011;21134;49.646;8.560;2023-06-26T09:20:48;9.60;;;4.25;;
34930;SDS011;21134;49.646;8.560;2023-06-26T09:23:14;5.13;;;2.65;;
34930;SDS011;21134;49.646;8.560;2023-06-26T09:25:43;6.80;;;2.65;;
34930;SDS011;21134;49.646;8.560;2023-06-26T09:28:10;5.10;;;2.70;;
34930;SDS011;21134;49.646;8.560;2023-06-26T09:30:37;3.75;;;2.55;;
34930;SDS011;21134;49.646;8.560;2023-06-26T09:33:13;4.80;;;2.90;;
34930;SDS011;21134;49.646;8.560;2023-06-26T09:35:40;4.95;;;3.28;;
34930;SDS011;21134;49.646;8.560;2023-06-26T09:38:07;3.78;;;3.10;;
34930;SDS011;21134;49.646;8.560;2023-06-26T09:40:33;2.97;;;2.55;;
34930;SDS011;21134;49.646;8.560;2023-06-26T09:43:04;2.58;;;2.22;;
34930;SDS011;21134;49.646;8.560;2023-06-26T09:45:31;3.53;;;2.40;;
34930;SDS011;21134;49.646;8.560;2023-06-26T09:47:59;3.30;;;2.40;;
34930;SDS011;21134;49.646;8.560;2023-06-26T09:50:27;4.32;;;2.30;;
34930;SDS011;21134;49.646;8.560;2023-06-26T09:52:55;5.50;;;2.90;;
34930;SDS011;21134;49.646;8.560;2023-06-26T09:55:21;4.07;;;2.63;;
34930;SDS011;21134;49.646;8.560;2023-06-26T09:57:49;2.97;;;2.00;;
34930;SDS011;21134;49.646;8.560;2023-06-26T10:00:18;2.83;;;2.15;;
34930;SDS011;21134;49.646;8.560;2023-06-26T10:02:45;5.40;;;2.80;;
34930;SDS011;21134;49.646;8.560;2023-06-26T10:05:11;3.33;;;2.20;;
34930;SDS011;21134;49.646;8.560;2023-06-26T10:07:38;4.13;;;2.55;;
34930;SDS011;21134;49.646;8.560;2023-06-26T10:10:06;3.13;;;2.20;;
34930;SDS011;21134;49.646;8.560;2023-06-26T10:12:34;3.35;;;2.63;;
34930;SDS011;21134;49.646;8.560;2023-06-26T10:15:02;4.55;;;2.05;;
34930;SDS011;21134;49.646;8.560;2023-06-26T10:17:32;3.67;;;2.95;;
34930;SDS011;21134;49.646;8.560;2023-06-26T10:20:01;3.95;;;2.50;;
34930;SDS011;21134;49.646;8.560;2023-06-26T10:22:29;4.20;;;2.65;;
34930;SDS011;21134;49.646;8.560;2023-06-26T10:25:00;2.22;;;2.05;;
34930;SDS011;21134;49.646;8.560;2023-06-26T10:27:32;3.83;;;2.40;;
34930;SDS011;21134;49.646;8.560;2023-06-26T10:30:03;3.63;;;2.10;;
34930;SDS011;21134;49.646;8.560;2023-06-26T10:32:36;6.85;;;2.55;;
34930;SDS011;21134;49.646;8.560;2023-06-26T10:35:05;2.72;;;2.05;;
34930;SDS011;21134;49.646;8.560;2023-06-26T10:37:41;3.15;;;2.47;;
34930;SDS011;21134;49.646;8.560;2023-06-26T10:40:09;2.95;;;2.50;;
34930;SDS011;21134;49.646;8.560;2023-06-26T10:42:36;2.42;;;1.98;;
34930;SDS011;21134;49.646;8.560;2023-06-26T10:45:10;3.00;;;2.03;;
34930;SDS011;21134;49.646;8.560;2023-06-26T10:47:39;2.58;;;2.08;;
34930;SDS011;21134;49.646;8.560;2023-06-26T10:50:16;3.47;;;2.38;;
34930;SDS011;21134;49.646;8.560;2023-06-26T10:52:54;1.95;;;1.77;;
34930;SDS011;21134;49.646;8.560;2023-06-26T10:55:33;2.03;;;1.90;;
34930;SDS011;21134;49.646;8.560;2023-06-26T10:58:00;3.47;;;2.15;;
34930;SDS011;21134;49.646;8.560;2023-06-26T11:00:28;2.17;;;1.90;;
34930;SDS011;21134;49.646;8.560;2023-06-26T11:02:56;3.13;;;1.85;;
34930;SDS011;21134;49.646;8.560;2023-06-26T11:05:25;2.53;;;2.08;;
34930;SDS011;21134;49.646;8.560;2023-06-26T11:08:02;8.50;;;2.67;;
34930;SDS011;21134;49.646;8.560;2023-06-26T11:10:29;2.40;;;1.98;;
34930;SDS011;21134;49.646;8.560;2023-06-26T11:13:13;2.38;;;1.77;;
34930;SDS011;21134;49.646;8.560;2023-06-26T11:15:42;2.47;;;1.90;;
34930;SDS011;21134;49.646;8.560;2023-06-26T11:18:10;5.18;;;1.70;;
34930;SDS011;21134;49.646;8.560;2023-06-26T11:20:38;3.88;;;2.30;;
34930;SDS011;21134;49.646;8.560;2023-06-26T11:23:05;4.40;;;2.20;;
34930;SDS011;21134;49.646;8.560;2023-06-26T11:25:33;3.47;;;2.40;;
34930;SDS011;21134;49.646;8.560;2023-06-26T11:28:01;8.25;;;2.58;;
34930;SDS011;21134;49.646;8.560;2023-06-26T11:30:28;4.07;;;2.53;;
34930;SDS011;21134;49.646;8.560;2023-06-26T11:33:02;5.35;;;2.38;;
34930;SDS011;21134;49.646;8.560;2023-06-26T11:35:30;2.35;;;2.13;;
34930;SDS011;21134;49.646;8.560;2023-06-26T11:37:57;3.08;;;2.17;;
34930;SDS011;21134;49.646;8.560;2023-06-26T11:40:25;3.20;;;2.45;;
34930;SDS011;21134;49.646;8.560;2023-06-26T11:42:55;4.43;;;2.20;;
34930;SDS011;21134;49.646;8.560;2023-06-26T11:45:23;2.22;;;1.92;;
34930;SDS011;21134;49.646;8.560;2023-06-26T11:47:50;2.65;;;2.22;;
34930;SDS011;21134;49.646;8.560;2023-06-26T11:50:17;4.15;;;2.63;;
34930;SDS011;21134;49.646;8.560;2023-06-26T11:52:45;5.50;;;2.67;;
34930;SDS011;21134;49.646;8.560;2023-06-26T11:55:18;4.80;;;2.50;;
34930;SDS011;21134;49.646;8.560;2023-06-26T11:57:47;3.00;;;2.63;;
34930;SDS011;21134;49.646;8.560;2023-06-26T12:00:14;4.80;;;2.10;;
34930;SDS011;21134;49.646;8.560;2023-06-26T12:02:42;3.97;;;2.28;;
34930;SDS011;21134;49.646;8.560;2023-06-26T12:05:09;3.00;;;2.05;;
34930;SDS011;21134;49.646;8.560;2023-06-26T12:07:36;3.58;;;2.33;;
34930;SDS011;21134;49.646;8.560;2023-06-26T12:10:05;2.28;;;1.83;;
34930;SDS011;21134;49.646;8.560;2023-06-26T12:12:32;2.00;;;1.73;;
34930;SDS011;21134;49.646;8.560;2023-06-26T12:14:59;5.07;;;2.15;;
34930;SDS011;21134;49.646;8.560;2023-06-26T12:17:26;2.45;;;1.85;;
34930;SDS011;21134;49.646;8.560;2023-06-26T12:19:53;3.28;;;1.92;;
34930;SDS011;21134;49.646;8.560;2023-06-26T12:22:21;1.73;;;1.60;;
34930;SDS011;21134;49.646;8.560;2023-06-26T12:24:48;3.63;;;2.05;;
34930;SDS011;21134;49.646;8.560;2023-06-26T12:27:18;2.25;;;1.60;;
34930;SDS011;21134;49.646;8.560;2023-06-26T12:29:53;3.35;;;2.20;;
34930;SDS011;21134;49.646;8.560;2023-06-26T12:32:22;3.65;;;1.75;;
34930;SDS011;21134;49.646;8.560;2023-06-26T12:34:49;2.88;;;1.60;;
34930;SDS011;21134;49.646;8.560;2023-06-26T12:37:16;1.65;;;1.55;;
34930;SDS011;21134;49.646;8.560;2023-06-26T12:39:47;2.58;;;1.70;;
34930;SDS011;21134;49.646;8.560;2023-06-26T12:42:17;3.08;;;1.58;;
34930;SDS011;21134;49.646;8.560;2023-06-26T12:44:44;3.40;;;2.03;;
34930;SDS011;21134;49.646;8.560;2023-06-26T12:47:10;3.13;;;1.80;;
34930;SDS011;21134;49.646;8.560;2023-06-26T12:49:39;5.10;;;1.88;;
34930;SDS011;21134;49.646;8.560;2023-06-26T12:52:07;2.22;;;1.92;;
34930;SDS011;21134;49.646;8.560;2023-06-26T12:54:35;6.45;;;1.98;;
34930;SDS011;21134;49.646;8.560;2023-06-26T12:57:03;5.00;;;2.33;;
34930;SDS011;21134;49.646;8.560;2023-06-26T12:59:32;10.55;;;2.58;;
34930;SDS011;21134;49.646;8.560;2023-06-26T13:02:00;4.75;;;2.22;;
34930;SDS011;21134;49.646;8.560;2023-06-26T13:04:27;4.53;;;2.38;;
34930;SDS011;21134;49.646;8.560;2023-06-26T13:06:54;5.10;;;2.42;;
34930;SDS011;21134;49.646;8.560;2023-06-26T13:09:20;3.60;;;2.20;;
34930;SDS011;21134;49.646;8.560;2023-06-26T13:11:47;3.40;;;2.38;;
34930;SDS011;21134;49.646;8.560;2023-06-26T13:14:14;3.72;;;2.50;;
34930;SDS011;21134;49.646;8.560;2023-06-26T13:16:42;6.53;;;3.20;;
34930;SDS011;21134;49.646;8.560;2023-06-26T13:19:08;4.40;;;2.97;;
34930;SDS011;21134;49.646;8.560;2023-06-26T13:21:35;4.30;;;2.70;;
34930;SDS011;21134;49.646;8.560;2023-06-26T13:24:02;4.35;;;3.22;;
34930;SDS011;21134;49.646;8.560;2023-06-26T13:26:29;4.55;;;2.65;;
34930;SDS011;21134;49.646;8.560;2023-06-26T13:28:57;4.10;;;2.30;;
34930;SDS011;21134;49.646;8.560;2023-06-26T13:31:23;4.10;;;2.58;;
34930;SDS011;21134;49.646;8.560;2023-06-26T13:33:51;3.42;;;2.55;;
34930;SDS011;21134;49.646;8.560;2023-06-26T13:36:18;3.45;;;2.70;;
34930;SDS011;21134;49.646;8.560;2023-06-26T13:38:46;3.40;;;1.75;;
34930;SDS011;21134;49.646;8.560;2023-06-26T13:41:14;2.10;;;1.88;;
34930;SDS011;21134;49.646;8.560;2023-06-26T13:43:41;4.55;;;2.50;;
34930;SDS011;21134;49.646;8.560;2023-06-26T13:46:07;4.05;;;2.20;;
34930;SDS011;21134;49.646;8.560;2023-06-26T13:48:34;2.65;;;1.77;;
34930;SDS011;21134;49.646;8.560;2023-06-26T13:51:02;2.42;;;1.60;;
34930;SDS011;21134;49.646;8.560;2023-06-26T13:53:28;3.63;;;2.17;;
34930;SDS011;21134;49.646;8.560;2023-06-26T13:55:55;3.65;;;1.73;;
34930;SDS011;21134;49.646;8.560;2023-06-26T13:58:21;2.30;;;1.52;;
34930;SDS011;21134;49.646;8.560;2023-06-26T14:00:51;2.10;;;1.77;;
34930;SDS011;21134;49.646;8.560;2023-06-26T14:03:20;2.10;;;1.52;;
34930;SDS011;21134;49.646;8.560;2023-06-26T14:05:47;3.22;;;1.90;;
34930;SDS011;21134;49.646;8.560;2023-06-26T14:08:16;4.47;;;2.25;;
34930;SDS011;21134;49.646;8.560;2023-06-26T14:10:43;1.38;;;1.27;;
34930;SDS011;21134;49.646;8.560;2023-06-26T14:13:10;1.58;;;1.45;;
34930;SDS011;21134;49.646;8.560;2023-06-26T14:15:40;1.50;;;0.90;;
34930;SDS011;21134;49.646;8.560;2023-06-26T14:18:07;1.40;;;1.10;;
34930;SDS011;21134;49.646;8.560;2023-06-26T14:20:36;2.10;;;1.15;;
34930;SDS011;21134;49.646;8.560;2023-06-26T14:23:02;1.45;;;1.10;;
34930;SDS011;21134;49.646;8.560;2023-06-26T14:25:30;1.85;;;0.82;;
34930;SDS011;21134;49.646;8.560;2023-06-26T14:27:57;1.63;;;1.40;;
34930;SDS011;21134;49.646;8.560;2023-06-26T14:30:24;9.52;;;1.77;;
34930;SDS011;21134;49.646;8.560;2023-06-26T14:32:50;1.38;;;0.82;;
34930;SDS011;21134;49.646;8.560;2023-06-26T14:35:17;4.15;;;1.20;;
34930;SDS011;21134;49.646;8.560;2023-06-26T14:37:43;2.65;;;1.27;;
34930;SDS011;21134;49.646;8.560;2023-06-26T14:40:10;2.22;;;1.15;;
34930;SDS011;21134;49.646;8.560;2023-06-26T14:42:39;2.67;;;0.95;;
34930;SDS011;21134;49.646;8.560;2023-06-26T14:45:06;2.63;;;0.93;;
34930;SDS011;21134;49.646;8.560;2023-06-26T14:47:33;1.20;;;0.85;;
34930;SDS011;21134;49.646;8.560;2023-06-26T14:49:59;2.22;;;1.02;;
34930;SDS011;21134;49.646;8.560;2023-06-26T14:52:26;2.35;;;1.30;;